Time;durP1;ratioP1;P1;durP2;ratioP2;P2;SDS_P1;SDS_P2;PMS_P1;PMS_P2;Temp;Humidity;BMP_temperature;BMP_pressure;BME280_temperature;BME280_humidity;BME280_pressure;Samples;Min_cycle;Max_cycle;Signal;HPM_P1;HPM_P2
2022/12/23 00:01:38;;;;;;;203.25;93.80;;;3.20;99.90;;;;;;5030756;28;20109;-77
2022/12/23 00:04:03;;;;;;;;;;;3.20;99.90;;;;;;5030807;28;20116;-77
2022/12/23 00:06:29;;;;;;;180.57;81.90;;;3.20;99.90;;;;;;5030838;28;20348;-77
2022/12/23 00:08:56;;;;;;;;;;;3.20;99.90;;;;;;5031846;28;20555;-76
2022/12/23 00:11:23;;;;;;;;;;;3.30;99.90;;;;;;5032764;28;19917;-76
2022/12/23 00:16:35;;;;;;;184.45;86.88;;;3.30;99.90;;;;;;5031465;28;20824;-77
2022/12/23 00:19:01;;;;;;;186.73;87.53;;;3.30;99.90;;;;;;5047164;28;20056;-77
2022/12/23 00:21:26;;;;;;;;;;;3.30;99.90;;;;;;5032099;28;20034;-77
2022/12/23 00:23:52;;;;;;;208.35;96.78;;;3.30;99.90;;;;;;5031743;28;19908;-77
2022/12/23 00:26:22;;;;;;;;;;;3.30;99.90;;;;;;5032499;28;20033;-77
2022/12/23 00:28:48;;;;;;;177.40;86.00;;;3.30;99.90;;;;;;5035338;28;20324;-77
2022/12/23 00:31:17;;;;;;;;;;;3.50;99.90;;;;;;5053480;28;20123;-77
2022/12/23 00:33:44;;;;;;;192.27;92.38;;;3.50;99.90;;;;;;5035757;28;19971;-78
2022/12/23 00:36:26;;;;;;;190.90;90.47;;;3.40;99.90;;;;;;5035762;28;20026;-77
2022/12/23 00:44:25;;;;;;;224.80;105.35;;;3.40;99.90;;;;;;5035477;28;20047;-77
2022/12/23 00:46:51;;;;;;;;;;;3.40;99.90;;;;;;5033703;28;20116;-77
2022/12/23 00:52:05;;;;;;;222.38;107.53;;;3.50;99.90;;;;;;5035255;28;20036;-77
2022/12/23 00:54:30;;;;;;;187.70;90.07;;;3.50;99.90;;;;;;5033404;28;20052;-77
2022/12/23 00:56:56;;;;;;;;;;;3.50;99.90;;;;;;5050904;28;20025;-77
2022/12/23 00:59:22;;;;;;;204.93;98.18;;;3.50;99.90;;;;;;5033598;28;20381;-77
2022/12/23 01:07:16;;;;;;;201.85;93.07;;;3.50;99.90;;;;;;5037184;28;20554;-77
2022/12/23 01:09:42;;;;;;;;;;;3.50;99.90;;;;;;5034730;28;20030;-77
2022/12/23 01:12:07;;;;;;;208.77;99.80;;;3.50;99.90;;;;;;5034068;28;19917;-77
2022/12/23 01:14:33;;;;;;;;;;;3.60;99.90;;;;;;5034870;28;20084;-76
2022/12/23 01:16:59;;;;;;;187.15;96.43;;;3.70;99.90;;;;;;5034459;28;19963;-77
2022/12/23 01:19:24;;;;;;;;;;;3.70;99.90;;;;;;5035694;28;20052;-77
2022/12/23 01:21:50;;;;;;;194.40;92.13;;;3.70;99.90;;;;;;5034876;28;19948;-77
2022/12/23 01:24:16;;;;;;;;;;;3.80;99.90;;;;;;5035692;28;20029;-78
2022/12/23 01:26:41;;;;;;;166.32;79.35;;;3.80;99.90;;;;;;5038017;28;19909;-77
2022/12/23 01:29:07;;;;;;;;;;;3.90;99.90;;;;;;5032907;28;20092;-77
2022/12/23 01:31:33;;;;;;;194.50;92.03;;;4.00;99.90;;;;;;5032838;28;19912;-77
2022/12/23 01:34:01;;;;;;;;;;;4.00;99.90;;;;;;5032852;28;20498;-76
2022/12/23 01:36:27;;;;;;;168.00;78.05;;;4.10;99.90;;;;;;5031405;28;19912;-75
2022/12/23 01:38:54;;;;;;;;;;;4.10;99.90;;;;;;5031559;28;20029;-77
2022/12/23 01:45:04;;;;;;;145.73;62.50;;;4.30;99.90;;;;;;5032794;28;20452;-77
2022/12/23 01:47:41;;;;;;;138.98;60.33;;;4.40;99.90;;;;;;4990659;28;20122;-76
2022/12/23 01:50:10;;;;;;;141.35;58.83;;;4.40;99.90;;;;;;4974558;28;20030;-76
2022/12/23 01:53:04;;;;;;;124.78;58.40;;;4.50;99.90;;;;;;5005047;28;20065;-77
2022/12/23 01:55:35;;;;;;;115.95;52.22;;;4.50;99.90;;;;;;5027073;28;20049;-77
2022/12/23 01:58:09;;;;;;;133.90;54.72;;;4.60;99.90;;;;;;5031398;28;20034;-77
2022/12/23 02:11:49;;;;;;;156.05;64.50;;;4.70;99.90;;;;;;5031773;28;20037;-77
2022/12/23 02:17:22;;;;;;;141.48;58.42;;;4.70;99.90;;;;;;5032147;28;20812;-78
2022/12/23 02:20:08;;;;;;;127.93;56.30;;;4.70;99.90;;;;;;5031774;28;20434;-79
2022/12/23 02:22:45;;;;;;;165.20;62.13;;;4.70;99.90;;;;;;5021264;28;20045;-78
2022/12/23 02:25:10;;;;;;;;;;;4.70;99.90;;;;;;5031475;28;20021;-76
2022/12/23 02:28:08;;;;;;;140.00;55.30;;;4.80;99.90;;;;;;5030811;28;20266;-76
2022/12/23 02:30:49;;;;;;;161.02;59.17;;;4.80;99.90;;;;;;5024613;28;20045;-76
2022/12/23 02:33:30;;;;;;;151.13;61.28;;;4.70;99.90;;;;;;5032559;28;20032;-77
2022/12/23 02:36:19;;;;;;;137.68;56.05;;;4.80;99.90;;;;;;5032117;28;20033;-77
2022/12/23 02:39:28;;;;;;;162.07;60.70;;;4.80;99.90;;;;;;5048515;28;20212;-78
2022/12/23 02:42:01;;;;;;;131.52;52.08;;;4.80;99.90;;;;;;5009257;28;20502;-77
2022/12/23 02:44:51;;;;;;;162.07;60.58;;;4.80;99.90;;;;;;5032218;28;20030;-77
2022/12/23 02:47:24;;;;;;;146.93;56.08;;;4.80;99.90;;;;;;5033141;28;20041;-77
2022/12/23 02:49:54;;;;;;;144.15;55.33;;;4.90;99.90;;;;;;5049759;28;20033;-77
2022/12/23 02:52:26;;;;;;;151.27;59.00;;;4.90;99.90;;;;;;5033395;28;20030;-77
2022/12/23 02:55:00;;;;;;;153.52;59.42;;;4.90;99.90;;;;;;5034750;28;20568;-77
2022/12/23 02:57:33;;;;;;;140.95;56.22;;;5.00;99.90;;;;;;5034422;28;20036;-77
2022/12/23 03:00:02;;;;;;;123.45;52.78;;;5.00;99.90;;;;;;5031039;28;20059;-77
2022/12/23 03:02:29;;;;;;;129.98;52.45;;;5.00;99.90;;;;;;5045048;28;20036;-77
2022/12/23 03:04:55;;;;;;;116.53;50.33;;;5.10;99.90;;;;;;5044796;28;20029;-78
2022/12/23 03:07:30;;;;;;;;;;;5.10;99.90;;;;;;5028503;28;20036;-77
2022/12/23 03:10:17;;;;;;;130.73;54.05;;;5.00;99.90;;;;;;5028177;28;20395;-76
2022/12/23 03:12:55;;;;;;;138.27;51.05;;;5.00;99.90;;;;;;5027723;28;20080;-76
2022/12/23 03:15:31;;;;;;;127.70;49.10;;;5.00;99.90;;;;;;5027988;28;20055;-76
2022/12/23 03:18:07;;;;;;;139.82;56.72;;;5.10;99.90;;;;;;5030159;28;20029;-76
2022/12/23 03:20:55;;;;;;;160.82;63.20;;;5.00;99.90;;;;;;5044622;28;20026;-77
2022/12/23 03:23:45;;;;;;;132.15;53.15;;;5.00;99.90;;;;;;5030286;28;20030;-75
2022/12/23 03:26:18;;;;;;;138.98;52.05;;;5.00;99.90;;;;;;5029155;28;20029;-77
2022/12/23 03:28:46;;;;;;;116.93;45.78;;;5.00;99.90;;;;;;5028619;28;20056;-77
2022/12/23 03:31:17;;;;;;;109.45;45.88;;;5.20;99.90;;;;;;5030331;28;20037;-77
2022/12/23 03:33:47;;;;;;;140.15;57.08;;;5.20;99.90;;;;;;5028884;28;20478;-77
2022/12/23 03:36:21;;;;;;;144.23;59.90;;;5.20;99.90;;;;;;5045351;28;20037;-76
2022/12/23 03:38:50;;;;;;;139.43;55.78;;;5.10;99.90;;;;;;5029892;28;20033;-76
2022/12/23 03:41:23;;;;;;;193.05;91.72;;;5.10;99.90;;;;;;5045014;28;20532;-77
2022/12/23 03:43:54;;;;;;;137.23;53.63;;;5.10;99.90;;;;;;5045323;28;20568;-78
2022/12/23 03:46:33;;;;;;;118.85;47.85;;;5.10;99.90;;;;;;5030091;28;20105;-77
2022/12/23 03:49:06;;;;;;;119.13;50.20;;;5.10;99.90;;;;;;5030442;28;20033;-77
2022/12/23 03:51:54;;;;;;;144.82;61.58;;;5.10;99.90;;;;;;5045299;28;20021;-77
2022/12/23 03:54:26;;;;;;;125.13;53.47;;;5.10;99.90;;;;;;5028887;28;20117;-76
2022/12/23 03:57:01;;;;;;;117.13;48.97;;;5.00;99.90;;;;;;5029306;28;20032;-76
2022/12/23 03:59:34;;;;;;;129.82;51.00;;;5.00;99.90;;;;;;5029629;28;20426;-77
2022/12/23 04:02:34;;;;;;;107.20;46.40;;;5.00;99.90;;;;;;5030400;28;20047;-76
2022/12/23 04:05:38;;;;;;;118.28;50.13;;;5.00;99.90;;;;;;5035064;28;20021;-76
2022/12/23 04:08:15;;;;;;;120.35;50.65;;;4.90;99.90;;;;;;5034166;28;20558;-76
2022/12/23 04:10:41;;;;;;;140.75;58.35;;;4.90;99.90;;;;;;5033421;28;20033;-78
2022/12/23 04:13:07;;;;;;;;;;;4.90;99.90;;;;;;5034870;28;20042;-77
2022/12/23 04:15:36;;;;;;;208.45;75.90;;;4.90;99.90;;;;;;5034268;28;19909;-76
2022/12/23 04:18:02;;;;;;;244.77;90.75;;;4.80;99.90;;;;;;5035646;28;20112;-77
2022/12/23 04:20:28;;;;;;;;;;;4.70;99.90;;;;;;5052519;28;20113;-77
2022/12/23 04:22:53;;;;;;;244.43;84.85;;;4.70;99.90;;;;;;5036328;28;19909;-77
2022/12/23 04:25:19;;;;;;;;;;;4.60;99.90;;;;;;5037423;28;20502;-77
2022/12/23 04:27:45;;;;;;;277.90;90.32;;;4.50;99.90;;;;;;5037865;28;19908;-76
2022/12/23 04:30:12;;;;;;;;;;;4.40;99.90;;;;;;5034209;28;20033;-77
2022/12/23 04:32:41;;;;;;;225.73;86.00;;;4.40;99.90;;;;;;5032821;28;20078;-76
2022/12/23 04:35:08;;;;;;;263.02;84.65;;;4.40;99.90;;;;;;5049732;28;20037;-78
2022/12/23 04:37:34;;;;;;;193.50;83.60;;;4.30;99.90;;;;;;5035102;28;20017;-77
2022/12/23 04:39:59;;;;;;;;;;;4.30;99.90;;;;;;5035683;28;20032;-78
2022/12/23 04:42:25;;;;;;;199.80;81.00;;;4.30;99.90;;;;;;5033798;28;19936;-77
2022/12/23 04:44:51;;;;;;;;;;;4.30;99.90;;;;;;5034491;28;20033;-77
2022/12/23 04:47:16;;;;;;;192.60;77.53;;;4.30;99.90;;;;;;5034145;28;19955;-78
2022/12/23 04:49:42;;;;;;;;;;;4.30;99.90;;;;;;5033933;28;20026;-77
2022/12/23 04:52:08;;;;;;;199.82;81.53;;;4.30;99.90;;;;;;5034675;28;19911;-77
2022/12/23 04:54:33;;;;;;;;;;;4.30;99.90;;;;;;5051209;28;20041;-77
2022/12/23 04:56:59;;;;;;;219.77;86.28;;;4.30;99.90;;;;;;5034662;28;20304;-78
2022/12/23 04:59:25;;;;;;;;;;;4.20;99.90;;;;;;5033011;28;20029;-77
2022/12/23 05:01:50;;;;;;;227.32;87.80;;;4.30;99.90;;;;;;5033029;28;19912;-77
2022/12/23 05:04:16;;;;;;;219.27;84.43;;;4.20;99.90;;;;;;5051375;28;20109;-77
2022/12/23 05:06:42;;;;;;;;;;;4.20;99.90;;;;;;5034809;28;20042;-76
2022/12/23 05:09:07;;;;;;;228.45;91.68;;;4.20;99.90;;;;;;5034001;28;19905;-78
2022/12/23 05:11:33;;;;;;;;;;;4.10;99.90;;;;;;5035022;28;20484;-77
2022/12/23 05:13:59;;;;;;;283.00;97.15;;;4.10;99.90;;;;;;5035266;28;19919;-76
2022/12/23 05:16:24;;;;;;;;;;;4.10;99.90;;;;;;5035724;28;20122;-77
2022/12/23 05:18:50;;;;;;;224.23;87.80;;;4.00;99.90;;;;;;5036377;28;20398;-77
2022/12/23 05:21:16;;;;;;;;;;;4.00;99.90;;;;;;5036157;28;20030;-77
2022/12/23 05:23:41;;;;;;;292.90;96.60;;;4.00;99.90;;;;;;5035166;28;20670;-77
2022/12/23 05:26:07;;;;;;;243.35;93.75;;;4.00;99.90;;;;;;5050213;28;20029;-77
2022/12/23 05:28:33;;;;;;;;;;;4.00;99.90;;;;;;5035591;28;20089;-78
2022/12/23 05:31:00;;;;;;;236.55;92.18;;;4.00;99.90;;;;;;5032714;28;20423;-76
2022/12/23 05:33:26;;;;;;;235.80;92.88;;;4.00;99.90;;;;;;5033201;28;20040;-76
2022/12/23 05:35:52;;;;;;;;;;;4.00;99.90;;;;;;5034762;28;20034;-77
2022/12/23 05:38:17;;;;;;;224.75;90.60;;;4.00;99.90;;;;;;5034279;28;19909;-77
2022/12/23 05:40:43;;;;;;;;;;;3.90;99.90;;;;;;5034407;28;20065;-77
2022/12/23 05:43:09;;;;;;;228.25;86.60;;;4.00;99.90;;;;;;5035527;28;19980;-77
2022/12/23 05:45:35;;;;;;;;;;;3.90;99.90;;;;;;5035817;28;20033;-77
2022/12/23 05:48:00;;;;;;;200.55;84.13;;;3.90;99.90;;;;;;5034824;28;20409;-78
2022/12/23 05:50:26;;;;;;;;;;;3.90;99.90;;;;;;5036478;28;20037;-77
2022/12/23 05:52:54;;;;;;;239.85;85.97;;;3.90;99.90;;;;;;5035404;28;19913;-77
2022/12/23 05:55:20;;;;;;;304.75;93.80;;;3.80;99.90;;;;;;5034685;28;20048;-77
2022/12/23 05:57:46;;;;;;;;;;;3.80;99.90;;;;;;5036063;28;20029;-77
2022/12/23 06:00:12;;;;;;;268.23;91.50;;;3.80;99.90;;;;;;5036813;28;19905;-76
2022/12/23 06:02:39;;;;;;;242.40;89.05;;;3.70;99.90;;;;;;5034610;28;20025;-77
2022/12/23 06:05:05;;;;;;;343.65;100.80;;;3.70;99.90;;;;;;5031723;28;20033;-77
2022/12/23 06:07:31;;;;;;;254.15;94.30;;;3.70;99.90;;;;;;5030557;28;20033;-77
2022/12/23 06:09:57;;;;;;;;;;;3.70;99.90;;;;;;5033341;28;20045;-77
2022/12/23 06:12:22;;;;;;;356.50;104.30;;;3.70;99.90;;;;;;5032844;28;19944;-77
2022/12/23 06:14:48;;;;;;;;;;;3.70;99.90;;;;;;5033137;28;20080;-76
2022/12/23 06:17:14;;;;;;;309.83;99.43;;;3.70;99.90;;;;;;5031206;28;19918;-77
2022/12/23 06:19:39;;;;;;;;;;;3.70;99.90;;;;;;5033967;28;20025;-77
2022/12/23 06:22:05;;;;;;;315.15;107.70;;;3.70;99.90;;;;;;5033739;28;19915;-77
2022/12/23 06:24:30;;;;;;;;;;;3.70;99.90;;;;;;5033134;28;20048;-77
2022/12/23 06:26:56;;;;;;;376.00;113.53;;;3.70;99.90;;;;;;5033121;28;19908;-77
2022/12/23 06:29:22;;;;;;;;;;;3.70;99.90;;;;;;5033836;28;20029;-77
2022/12/23 06:31:47;;;;;;;420.13;143.63;;;3.70;99.90;;;;;;5032687;28;19916;-77
2022/12/23 06:34:13;;;;;;;;;;;3.70;99.90;;;;;;5033898;28;20522;-77
2022/12/23 06:36:38;;;;;;;314.35;103.07;;;3.70;99.90;;;;;;5048852;28;19909;-77
2022/12/23 06:39:04;;;;;;;;;;;3.70;99.90;;;;;;5034636;28;20445;-77
2022/12/23 06:41:30;;;;;;;275.40;95.13;;;3.70;99.90;;;;;;5032216;28;19919;-77
2022/12/23 06:43:55;;;;;;;;;;;3.70;99.90;;;;;;5032992;28;20389;-77
2022/12/23 06:46:21;;;;;;;260.42;87.05;;;3.70;99.90;;;;;;5032257;28;19952;-77
2022/12/23 06:48:46;;;;;;;;;;;3.70;99.90;;;;;;5034630;28;20033;-76
2022/12/23 06:51:12;;;;;;;276.77;91.45;;;3.80;99.90;;;;;;5031918;28;20450;-77
2022/12/23 06:53:38;;;;;;;;;;;3.80;99.90;;;;;;5034464;28;20474;-76
2022/12/23 06:56:04;;;;;;;265.15;92.72;;;3.80;99.90;;;;;;5032016;28;19916;-78
2022/12/23 06:58:30;;;;;;;600.88;115.90;;;3.80;99.90;;;;;;5033822;28;20064;-76
2022/12/23 07:00:55;;;;;;;;;;;3.80;99.90;;;;;;5034451;28;20025;-76
2022/12/23 07:03:21;;;;;;;683.00;141.20;;;3.80;99.90;;;;;;5032543;28;19947;-78
2022/12/23 07:05:48;;;;;;;;;;;3.90;99.90;;;;;;5033545;28;20033;-77
2022/12/23 07:08:13;;;;;;;817.80;121.88;;;3.90;99.90;;;;;;5031672;28;19912;-78
2022/12/23 07:10:39;;;;;;;;;;;3.90;99.90;;;;;;5032936;28;20528;-77
2022/12/23 07:13:04;;;;;;;559.25;123.63;;;3.90;99.90;;;;;;5032937;28;19927;-77
2022/12/23 07:15:30;;;;;;;;;;;3.90;99.90;;;;;;5031382;28;20041;-77
2022/12/23 07:17:56;;;;;;;921.10;131.38;;;3.90;99.90;;;;;;5048723;28;19920;-78
2022/12/23 07:20:21;;;;;;;;;;;3.90;99.90;;;;;;5034086;28;20083;-77
2022/12/23 07:22:49;;;;;;;992.92;122.97;;;3.90;99.90;;;;;;5033378;28;19909;-77
2022/12/23 07:25:15;;;;;;;1006.60;123.10;;;3.90;99.90;;;;;;5032680;28;20029;-78
2022/12/23 07:27:43;;;;;;;1232.65;135.45;;;3.90;99.90;;;;;;5032192;28;20041;-77
2022/12/23 07:30:09;;;;;;;906.30;123.10;;;4.00;99.90;;;;;;5033332;28;20041;-76
2022/12/23 07:32:35;;;;;;;;;;;3.90;99.90;;;;;;5034974;28;20578;-77
2022/12/23 07:35:01;;;;;;;750.13;103.05;;;4.00;99.90;;;;;;5033485;28;19965;-77
2022/12/23 07:37:26;;;;;;;;;;;4.00;99.90;;;;;;5031020;28;20033;-76
2022/12/23 07:39:52;;;;;;;637.70;96.65;;;4.10;99.90;;;;;;5030813;28;20386;-76
2022/12/23 07:42:17;;;;;;;;;;;4.10;99.90;;;;;;5031984;28;20545;-76
2022/12/23 07:44:43;;;;;;;519.00;80.95;;;4.20;99.90;;;;;;5031520;28;20337;-77
2022/12/23 07:47:09;;;;;;;;;;;4.20;99.90;;;;;;5047751;28;20506;-77
2022/12/23 07:49:34;;;;;;;560.05;85.30;;;4.30;99.90;;;;;;5027390;28;20538;-76
2022/12/23 07:52:00;;;;;;;;;;;4.40;99.90;;;;;;5028142;28;20038;-77
2022/12/23 07:54:25;;;;;;;439.90;81.80;;;4.40;99.90;;;;;;5027123;28;19917;-76
2022/12/23 07:56:51;;;;;;;;;;;4.50;99.90;;;;;;5027941;28;20027;-77
2022/12/23 07:59:17;;;;;;;512.55;98.10;;;4.60;99.90;;;;;;5027341;28;19959;-76
2022/12/23 08:01:42;;;;;;;;;;;4.70;99.90;;;;;;5028819;28;20055;-77
2022/12/23 08:04:08;;;;;;;423.55;82.43;;;4.70;99.90;;;;;;5027454;28;19984;-77
2022/12/23 08:06:34;;;;;;;;;;;4.70;99.90;;;;;;5027545;28;20030;-77
2022/12/23 08:09:00;;;;;;;309.30;69.60;;;4.80;99.90;;;;;;5028670;28;19905;-77
2022/12/23 08:11:25;;;;;;;;;;;4.80;99.90;;;;;;5029150;28;20033;-76
2022/12/23 08:13:51;;;;;;;204.07;67.85;;;4.90;99.90;;;;;;5028603;28;19920;-77
2022/12/23 08:16:17;;;;;;;;;;;4.90;99.90;;;;;;5046070;28;20116;-77
2022/12/23 08:18:43;;;;;;;156.30;58.03;;;5.00;99.90;;;;;;5028484;28;19916;-77
2022/12/23 08:21:13;;;;;;;;;;;5.00;99.90;;;;;;5029887;28;20037;-77
2022/12/23 08:23:40;;;;;;;155.15;59.17;;;5.10;99.90;;;;;;5027804;28;20386;-76
2022/12/23 08:26:12;;;;;;;166.73;72.90;;;5.20;99.90;;;;;;5028244;28;20124;-77
2022/12/23 08:28:38;;;;;;;157.65;68.38;;;5.10;99.90;;;;;;5028647;28;20026;-77
2022/12/23 08:31:22;;;;;;;142.68;63.35;;;5.20;99.90;;;;;;5028084;28;20405;-76
2022/12/23 08:33:50;;;;;;;122.38;55.45;;;5.30;99.90;;;;;;5030751;28;20037;-76
2022/12/23 08:36:19;;;;;;;168.52;85.93;;;5.40;99.90;;;;;;5029341;28;20037;-76
2022/12/23 08:38:45;;;;;;;153.80;75.10;;;5.50;99.90;;;;;;5030577;28;20116;-75
2022/12/23 08:41:12;;;;;;;;;;;5.60;99.90;;;;;;5030850;28;20136;-76
2022/12/23 08:43:38;;;;;;;149.13;63.67;;;5.70;99.90;;;;;;5031981;28;19909;-77
2022/12/23 08:46:04;;;;;;;;;;;5.70;99.90;;;;;;5031811;28;20029;-77
2022/12/23 08:48:31;;;;;;;142.15;58.08;;;5.80;99.90;;;;;;5031529;28;19948;-76
2022/12/23 08:51:00;;;;;;;158.10;63.03;;;5.80;99.90;;;;;;5051581;28;20030;-77
2022/12/23 08:53:26;;;;;;;134.55;58.30;;;5.90;99.90;;;;;;5037613;28;20029;-77
2022/12/23 08:55:52;;;;;;;;;;;5.90;99.90;;;;;;5038268;28;20068;-77
2022/12/23 08:58:17;;;;;;;138.52;56.85;;;6.10;99.90;;;;;;5037443;28;19995;-77
2022/12/23 09:00:43;;;;;;;;;;;6.10;99.90;;;;;;5038536;28;20036;-77
2022/12/23 09:03:08;;;;;;;288.90;62.25;;;6.00;99.90;;;;;;5037169;28;19916;-77
2022/12/23 09:05:38;;;;;;;;;;;6.00;99.90;;;;;;5050742;28;20021;-76
2022/12/23 09:08:04;;;;;;;186.57;57.47;;;5.90;99.90;;;;;;5033883;28;19912;-77
2022/12/23 09:10:29;;;;;;;;;;;5.80;99.90;;;;;;5032517;28;20022;-77
2022/12/23 09:12:55;;;;;;;195.68;59.80;;;5.80;99.90;;;;;;5032123;28;19916;-77
2022/12/23 09:15:20;;;;;;;;;;;5.70;99.90;;;;;;5033893;28;20037;-77
2022/12/23 09:17:46;;;;;;;192.45;65.65;;;5.70;99.90;;;;;;5031565;28;19912;-77
2022/12/23 09:20:12;;;;;;;;;;;5.70;99.90;;;;;;5032487;28;20026;-77
2022/12/23 09:22:38;;;;;;;204.35;72.07;;;5.60;99.90;;;;;;5031881;28;19916;-77
2022/12/23 09:25:04;;;;;;;;;;;5.60;99.90;;;;;;5032131;28;20111;-77
2022/12/23 09:27:29;;;;;;;165.55;64.25;;;5.60;99.90;;;;;;5033088;28;19915;-76
2022/12/23 09:29:55;;;;;;;;;;;5.50;99.90;;;;;;5031864;28;20109;-76
2022/12/23 09:32:21;;;;;;;562.13;73.63;;;5.50;99.90;;;;;;5032945;28;20388;-77
2022/12/23 09:34:46;;;;;;;;;;;5.50;99.90;;;;;;5034643;28;20040;-77
2022/12/23 09:37:15;;;;;;;226.50;70.22;;;5.40;99.90;;;;;;5032582;28;20024;-77
2022/12/23 09:39:41;;;;;;;348.50;78.05;;;5.40;99.90;;;;;;5032298;28;20025;-77
2022/12/23 09:42:23;;;;;;;;;;;5.40;99.90;;;;;;5033668;28;20072;-77
2022/12/23 09:45:11;;;;;;;313.00;107.80;;;5.40;99.90;;;;;;5047677;28;20286;-77
2022/12/23 09:47:38;;;;;;;185.50;78.25;;;5.30;99.90;;;;;;5030521;28;20065;-78
2022/12/23 09:50:32;;;;;;;155.57;52.45;;;5.40;99.90;;;;;;5032204;28;20041;-76
2022/12/23 09:53:04;;;;;;;157.57;47.63;;;5.40;99.90;;;;;;5013897;28;20156;-77
2022/12/23 09:55:41;;;;;;;226.77;51.03;;;5.50;99.90;;;;;;5032562;28;20045;-76
2022/12/23 09:58:27;;;;;;;149.88;46.72;;;5.50;99.90;;;;;;5032698;28;20460;-76
2022/12/23 10:01:19;;;;;;;219.85;52.45;;;5.50;99.90;;;;;;5036477;28;20064;-77
2022/12/23 10:03:57;;;;;;;262.90;56.45;;;5.50;99.90;;;;;;5016861;28;20402;-77
2022/12/23 10:06:27;;;;;;;126.75;47.88;;;5.40;99.90;;;;;;5035409;28;20021;-77
2022/12/23 10:08:58;;;;;;;140.43;54.28;;;5.50;99.90;;;;;;5034487;28;20168;-78
2022/12/23 10:11:29;;;;;;;179.52;66.70;;;5.50;99.90;;;;;;5050075;28;20060;-77
2022/12/23 10:14:09;;;;;;;144.13;58.33;;;5.50;99.90;;;;;;5031320;28;20060;-77
2022/12/23 10:16:41;;;;;;;155.05;59.50;;;5.60;99.90;;;;;;5031427;28;20026;-77
2022/12/23 10:19:19;;;;;;;203.80;60.40;;;5.80;99.90;;;;;;5031792;28;20037;-77
2022/12/23 10:22:05;;;;;;;152.70;52.10;;;5.90;99.90;;;;;;5032125;28;20029;-77
2022/12/23 10:24:43;;;;;;;175.35;53.17;;;5.90;99.90;;;;;;5032145;28;20037;-78
2022/12/23 10:27:33;;;;;;;177.52;55.70;;;5.90;99.90;;;;;;5049172;28;20038;-78
2022/12/23 10:30:17;;;;;;;185.15;58.47;;;5.80;99.90;;;;;;5034330;28;20052;-77
2022/12/23 10:33:12;;;;;;;327.08;60.95;;;5.70;99.90;;;;;;5033163;28;20500;-77
2022/12/23 10:36:04;;;;;;;233.07;60.83;;;5.70;99.90;;;;;;5032959;28;20054;-77
2022/12/23 10:38:49;;;;;;;192.40;61.28;;;5.70;99.90;;;;;;5047269;28;20029;-78
2022/12/23 10:42:08;;;;;;;159.18;54.22;;;5.70;99.90;;;;;;5029858;28;20030;-77
2022/12/23 10:44:50;;;;;;;155.07;52.20;;;5.70;99.90;;;;;;4989234;28;20026;-78
2022/12/23 10:47:42;;;;;;;160.88;47.97;;;5.70;99.90;;;;;;5024892;28;20030;-77
2022/12/23 10:50:31;;;;;;;170.10;53.03;;;5.70;99.90;;;;;;5029936;28;20017;-77
2022/12/23 10:53:01;;;;;;;147.75;47.20;;;5.70;99.90;;;;;;5032144;28;20561;-78
2022/12/23 10:55:32;;;;;;;164.55;47.35;;;5.70;99.90;;;;;;5046983;28;20513;-78
2022/12/23 10:58:16;;;;;;;180.55;47.08;;;5.70;99.90;;;;;;5030775;28;20442;-77
2022/12/23 11:00:45;;;;;;;114.43;39.30;;;5.70;99.90;;;;;;5031455;28;20048;-78
2022/12/23 11:03:35;;;;;;;115.85;45.17;;;5.60;99.90;;;;;;5031275;28;20037;-78
2022/12/23 11:06:02;;;;;;;100.15;40.05;;;5.60;99.90;;;;;;5030753;28;20029;-77
2022/12/23 11:08:29;;;;;;;96.47;44.13;;;5.60;99.90;;;;;;5028919;28;20025;-78
2022/12/23 11:10:56;;;;;;;124.20;55.83;;;5.50;99.90;;;;;;5033167;28;20028;-79
2022/12/23 11:13:43;;;;;;;108.93;48.22;;;5.50;99.90;;;;;;5031283;28;20049;-78
2022/12/23 11:16:20;;;;;;;117.13;48.55;;;5.50;99.90;;;;;;5029730;28;20037;-77
2022/12/23 11:18:59;;;;;;;110.85;46.65;;;5.60;99.90;;;;;;5031302;28;20187;-77
2022/12/23 11:21:26;;;;;;;134.52;49.70;;;5.60;99.90;;;;;;5031085;28;20021;-78
2022/12/23 11:24:18;;;;;;;136.52;54.95;;;5.60;99.90;;;;;;5032641;28;20059;-77
2022/12/23 11:26:59;;;;;;;301.63;152.88;;;5.70;99.90;;;;;;5032608;28;20093;-77
2022/12/23 11:29:30;;;;;;;124.78;48.33;;;5.70;99.90;;;;;;5031056;28;20025;-77
2022/12/23 11:31:56;;;;;;;110.13;48.15;;;5.70;99.90;;;;;;5032275;28;20064;-77
2022/12/23 11:34:24;;;;;;;;;;;5.70;99.90;;;;;;5030007;28;20025;-77
2022/12/23 11:36:55;;;;;;;140.18;56.30;;;5.70;99.90;;;;;;5030926;28;19947;-77
2022/12/23 11:39:21;;;;;;;127.35;46.72;;;5.80;99.90;;;;;;5029552;28;20041;-78
2022/12/23 11:41:48;;;;;;;;;;;5.80;99.90;;;;;;5030594;28;20021;-77
2022/12/23 11:44:53;;;;;;;176.20;42.17;;;5.70;99.90;;;;;;5031497;28;19912;-77
2022/12/23 11:47:22;;;;;;;152.07;47.22;;;5.70;99.90;;;;;;5007918;28;20124;-78
2022/12/23 11:49:50;;;;;;;137.50;51.88;;;5.60;99.90;;;;;;5030946;28;20033;-77
2022/12/23 11:52:19;;;;;;;160.25;64.80;;;5.50;99.90;;;;;;5030185;28;20516;-77
2022/12/23 11:54:59;;;;;;;194.32;58.72;;;5.50;99.90;;;;;;5031656;28;20045;-77
2022/12/23 11:57:52;;;;;;;134.48;50.20;;;5.50;99.90;;;;;;5032033;28;20120;-77
2022/12/23 12:00:20;;;;;;;125.97;49.22;;;5.40;99.90;;;;;;5031448;28;20616;-77
2022/12/23 12:02:51;;;;;;;148.52;48.13;;;5.50;99.90;;;;;;5033902;28;20036;-77
2022/12/23 12:05:28;;;;;;;174.07;50.42;;;5.50;99.90;;;;;;5035463;28;20101;-78
2022/12/23 12:07:59;;;;;;;152.93;48.50;;;5.50;99.90;;;;;;5031764;28;20037;-77
2022/12/23 12:10:27;;;;;;;207.23;53.80;;;5.50;99.90;;;;;;5031233;28;20115;-77
2022/12/23 12:13:01;;;;;;;133.07;48.97;;;5.50;99.90;;;;;;5031740;28;20446;-78
2022/12/23 12:15:48;;;;;;;136.70;49.15;;;5.50;99.90;;;;;;5030325;28;20038;-77
2022/12/23 12:18:17;;;;;;;137.05;50.42;;;5.50;99.90;;;;;;5030981;28;20041;-78
2022/12/23 12:20:54;;;;;;;135.93;51.88;;;5.50;99.90;;;;;;5031109;28;20038;-77
2022/12/23 12:23:21;;;;;;;;;;;5.60;99.90;;;;;;5037825;28;20077;-77
2022/12/23 12:26:13;;;;;;;;;;;5.60;99.90;;;;;;5041978;28;19909;-76
2022/12/23 12:28:46;;;;;;;131.73;51.33;;;5.60;99.90;;;;;;5032458;28;19957;-77
2022/12/23 12:31:30;;;;;;;187.90;58.00;;;5.70;99.90;;;;;;5039266;28;20124;-77
2022/12/23 12:34:00;;;;;;;145.93;53.80;;;5.70;99.90;;;;;;5041138;28;20072;-78
2022/12/23 12:36:57;;;;;;;286.60;64.57;;;5.70;99.90;;;;;;5040523;28;20036;-77
2022/12/23 12:39:29;;;;;;;270.87;56.80;;;5.70;99.90;;;;;;5038433;28;20112;-77
2022/12/23 12:42:01;;;;;;;204.73;66.40;;;5.70;99.90;;;;;;5039795;28;20045;-77
2022/12/23 12:45:01;;;;;;;749.15;64.10;;;5.60;99.90;;;;;;5054082;28;20025;-77
2022/12/23 12:47:31;;;;;;;312.85;69.43;;;5.60;99.90;;;;;;5035009;28;20029;-77
2022/12/23 12:50:02;;;;;;;423.75;70.28;;;5.50;99.90;;;;;;5037998;28;20029;-77
2022/12/23 12:52:33;;;;;;;918.60;80.80;;;5.50;99.90;;;;;;5040121;28;20017;-78
2022/12/23 12:55:12;;;;;;;798.53;70.05;;;5.50;99.90;;;;;;5037422;28;20492;-77
2022/12/23 12:57:40;;;;;;;678.65;64.50;;;5.50;99.90;;;;;;5038384;28;20129;-81
2022/12/23 13:00:18;;;;;;;361.33;58.83;;;5.50;99.90;;;;;;5035056;28;20089;-77
2022/12/23 13:02:53;;;;;;;972.60;91.70;;;5.50;99.90;;;;;;5036107;28;20036;-77
2022/12/23 13:05:27;;;;;;;310.60;68.82;;;5.40;99.90;;;;;;5034500;28;20093;-76
2022/12/23 13:08:21;;;;;;;279.25;68.57;;;5.40;99.90;;;;;;5034426;28;20486;-76
2022/12/23 13:11:22;;;;;;;705.15;64.70;;;5.30;99.90;;;;;;5036452;28;20519;-77
2022/12/23 13:14:15;;;;;;;454.85;63.92;;;5.40;99.90;;;;;;5036957;28;20128;-76
2022/12/23 13:17:24;;;;;;;1053.35;148.93;;;5.40;99.90;;;;;;5038390;28;20048;-76
2022/12/23 13:20:08;;;;;;;470.27;70.80;;;5.30;99.90;;;;;;5036991;28;20097;-76
2022/12/23 13:22:35;;;;;;;384.60;79.43;;;5.40;99.90;;;;;;5038696;28;20108;-77
2022/12/23 13:25:21;;;;;;;208.32;60.65;;;5.30;99.90;;;;;;5032941;28;20241;-76
2022/12/23 13:27:56;;;;;;;167.63;57.50;;;5.40;99.90;;;;;;5037794;28;20025;-76
2022/12/23 13:30:25;;;;;;;237.13;62.15;;;5.40;99.90;;;;;;5037067;28;20033;-77
2022/12/23 13:33:13;;;;;;;881.72;86.63;;;5.40;99.90;;;;;;5037959;28;20075;-76
2022/12/23 13:36:00;;;;;;;456.20;81.55;;;5.40;99.90;;;;;;5037944;28;20037;-77
2022/12/23 13:38:56;;;;;;;326.58;72.97;;;5.40;99.90;;;;;;5035001;28;20032;-76
2022/12/23 13:41:38;;;;;;;425.02;75.55;;;5.30;99.90;;;;;;5035087;28;20061;-77
2022/12/23 13:44:08;;;;;;;347.80;80.43;;;5.40;99.90;;;;;;5034371;28;20021;-77
2022/12/23 13:46:54;;;;;;;299.70;70.75;;;5.40;99.90;;;;;;5034744;28;20108;-76
2022/12/23 13:49:35;;;;;;;190.18;61.28;;;5.40;99.90;;;;;;5029976;28;20030;-77
2022/12/23 13:52:24;;;;;;;224.52;65.00;;;5.40;99.90;;;;;;5029882;28;20037;-76